createdAt,value
2022-10-15T00:00:43.566Z,24.47
2022-10-15T00:03:10.791Z,24.48
2022-10-15T00:05:39.758Z,24.47
2022-10-15T00:08:08.636Z,24.53
2022-10-15T00:10:36.366Z,24.50
2022-10-15T00:13:04.201Z,24.45
2022-10-15T00:15:31.355Z,24.50
2022-10-15T00:17:58.644Z,24.50
2022-10-15T00:20:25.739Z,24.49
2022-10-15T00:22:54.190Z,24.49
2022-10-15T00:25:21.309Z,24.47
2022-10-15T00:27:48.404Z,24.45
2022-10-15T00:30:15.568Z,24.43
2022-10-15T00:32:42.681Z,24.44
2022-10-15T00:35:10.464Z,24.41
2022-10-15T00:37:37.571Z,24.35
2022-10-15T00:40:07.237Z,24.44
2022-10-15T00:42:34.332Z,24.52
2022-10-15T00:45:01.437Z,24.47
2022-10-15T00:47:34.753Z,24.48
2022-10-15T00:50:06.019Z,24.50
2022-10-15T00:52:39.844Z,24.50
2022-10-15T00:55:12.403Z,24.49
2022-10-15T00:57:40.735Z,24.51
2022-10-15T01:00:10.770Z,24.50
2022-10-15T01:02:37.899Z,24.46
2022-10-15T01:05:06.355Z,24.47
2022-10-15T01:07:33.523Z,24.45
2022-10-15T01:10:01.553Z,24.46
2022-10-15T01:12:44.313Z,24.48
2022-10-15T01:15:19.650Z,24.47
2022-10-15T01:17:50.930Z,24.47
2022-10-15T01:20:44.413Z,24.42
2022-10-15T01:23:31.472Z,24.43
2022-10-15T01:26:16.406Z,24.41
2022-10-15T01:28:50.968Z,24.40
2022-10-15T01:31:25.195Z,24.38
2022-10-15T01:33:58.663Z,24.37
2022-10-15T01:36:34.256Z,24.40
2022-10-15T01:39:09.461Z,24.43
2022-10-15T01:41:42.184Z,24.45
2022-10-15T01:44:13.052Z,24.41
2022-10-15T01:46:46.909Z,24.50
2022-10-15T01:49:17.200Z,24.51
2022-10-15T01:51:44.880Z,24.53
2022-10-15T01:54:16.648Z,24.52
2022-10-15T01:56:45.691Z,24.54
2022-10-15T01:59:13.297Z,24.51
2022-10-15T02:04:21.048Z,24.46
2022-10-15T02:06:53.318Z,24.44
2022-10-15T02:09:30.768Z,24.48
2022-10-15T02:12:07.040Z,24.45
2022-10-15T02:14:42.560Z,24.47
2022-10-15T02:17:11.623Z,24.44
2022-10-15T02:19:44.115Z,24.44
2022-10-15T02:22:16.620Z,24.41
2022-10-15T02:24:53.060Z,24.37
2022-10-15T02:27:24.563Z,24.41
2022-10-15T02:29:53.939Z,24.40
2022-10-15T02:32:23.588Z,24.45
2022-10-15T02:34:52.536Z,24.45
2022-10-15T02:37:22.392Z,24.43
2022-10-15T02:39:49.583Z,24.41
2022-10-15T02:42:18.007Z,24.49
2022-10-15T02:44:45.384Z,24.47
2022-10-15T02:47:12.842Z,24.48
2022-10-15T02:49:41.363Z,24.48
2022-10-15T02:52:08.560Z,24.48
2022-10-15T02:54:35.685Z,24.49
2022-10-15T02:57:02.852Z,24.44
2022-10-15T02:59:29.972Z,24.47
2022-10-15T03:01:57.081Z,24.45
2022-10-15T03:04:24.299Z,24.43
2022-10-15T03:06:52.748Z,24.44
2022-10-15T03:09:19.855Z,24.44
2022-10-15T03:11:46.962Z,24.43
2022-10-15T03:14:14.451Z,24.40
2022-10-15T03:16:41.587Z,24.40
2022-10-15T03:19:09.057Z,24.35
2022-10-15T03:21:36.232Z,24.34
2022-10-15T03:24:05.243Z,24.39
2022-10-15T03:26:32.375Z,24.39
2022-10-15T03:28:59.489Z,24.39
2022-10-15T03:31:26.591Z,24.40
2022-10-15T03:33:53.679Z,24.43
2022-10-15T03:36:20.832Z,24.45
2022-10-15T03:38:47.921Z,24.50
2022-10-15T03:41:16.381Z,24.49
2022-10-15T03:43:43.507Z,24.47
2022-10-15T03:46:10.737Z,24.46
2022-10-15T03:48:38.021Z,24.45
2022-10-15T03:51:05.560Z,24.46
2022-10-15T03:53:32.658Z,24.43
2022-10-15T03:56:03.610Z,24.47
2022-10-15T03:58:32.287Z,24.46
2022-10-15T04:00:59.455Z,24.47
2022-10-15T04:03:26.604Z,24.43
2022-10-15T04:05:54.748Z,24.44
2022-10-15T04:08:23.105Z,24.44
2022-10-15T04:10:51.117Z,24.41
2022-10-15T04:13:18.214Z,24.39
2022-10-15T04:15:46.661Z,24.37
2022-10-15T04:18:14.215Z,24.39
2022-10-15T04:20:41.458Z,24.37
2022-10-15T04:23:08.649Z,24.40
2022-10-15T04:25:36.412Z,24.41
2022-10-15T04:28:03.826Z,24.46
2022-10-15T04:30:30.968Z,24.43
2022-10-15T04:32:59.416Z,24.43
2022-10-15T04:35:26.538Z,24.46
2022-10-15T04:37:53.634Z,24.44
2022-10-15T04:40:20.740Z,24.48
2022-10-15T04:42:47.894Z,24.47
2022-10-15T04:45:15.233Z,24.46
2022-10-15T04:47:42.871Z,24.46
2022-10-15T04:50:11.527Z,24.44
2022-10-15T04:52:38.645Z,24.46
2022-10-15T04:55:06.754Z,24.44
2022-10-15T04:57:33.977Z,24.43
2022-10-15T05:00:01.082Z,24.42
2022-10-15T05:02:28.234Z,24.38
2022-10-15T05:04:55.488Z,24.39
2022-10-15T05:07:24.191Z,24.40
2022-10-15T05:09:51.434Z,24.35
2022-10-15T05:12:18.571Z,24.35
2022-10-15T05:14:45.672Z,24.38
2022-10-15T05:17:12.776Z,24.37
2022-10-15T05:19:40.035Z,24.38
2022-10-15T05:22:07.132Z,24.41
2022-10-15T05:24:35.570Z,24.41
2022-10-15T05:27:03.236Z,24.44
2022-10-15T05:29:30.496Z,24.46
2022-10-15T05:31:57.580Z,24.46
2022-10-15T05:34:24.910Z,24.43
2022-10-15T05:36:52.017Z,24.44
2022-10-15T05:39:19.198Z,24.46
2022-10-15T05:41:47.701Z,24.42
2022-10-15T05:44:15.310Z,24.46
2022-10-15T05:46:42.608Z,24.42
2022-10-15T05:49:09.712Z,24.42
2022-10-15T05:51:37.719Z,24.42
2022-10-15T05:54:04.825Z,24.43
2022-10-15T05:56:31.944Z,24.41
2022-10-15T05:59:00.398Z,24.39
2022-10-15T06:01:27.590Z,24.38
2022-10-15T06:03:54.744Z,24.36
2022-10-15T06:06:23.384Z,24.39
2022-10-15T06:08:50.874Z,24.38
2022-10-15T06:11:18.352Z,24.39
2022-10-15T06:13:46.719Z,24.42
2022-10-15T06:16:19.515Z,24.43
2022-10-15T06:18:51.665Z,24.39
2022-10-15T06:21:18.773Z,24.43
2022-10-15T06:23:45.872Z,24.46
2022-10-15T06:26:13.072Z,24.47
2022-10-15T06:28:40.242Z,24.45
2022-10-15T06:31:07.898Z,24.43
2022-10-15T06:33:36.710Z,24.45
2022-10-15T06:36:06.054Z,24.45
2022-10-15T06:38:33.410Z,24.45
2022-10-15T06:41:03.488Z,24.43
2022-10-15T06:43:31.222Z,24.45
2022-10-15T06:46:01.262Z,24.46
2022-10-15T06:48:28.416Z,24.43
2022-10-15T06:50:58.167Z,24.42
2022-10-15T06:53:25.271Z,24.43
2022-10-15T06:55:55.808Z,24.39
2022-10-15T06:58:22.926Z,24.37
2022-10-15T07:00:50.098Z,24.42
2022-10-15T07:03:17.270Z,24.42
2022-10-15T07:05:44.367Z,24.42
2022-10-15T07:08:16.859Z,24.45
2022-10-15T07:10:47.271Z,24.45
2022-10-15T07:13:14.388Z,24.50
2022-10-15T07:15:41.499Z,24.44
2022-10-15T07:18:08.621Z,24.44
2022-10-15T07:20:35.704Z,24.46
2022-10-15T07:23:03.320Z,24.44
2022-10-15T07:25:32.002Z,24.43
2022-10-15T07:27:59.146Z,24.46
2022-10-15T07:30:26.352Z,24.47
2022-10-15T07:32:53.540Z,24.46
2022-10-15T07:35:20.629Z,24.45
2022-10-15T07:37:47.716Z,24.43
2022-10-15T07:40:14.996Z,24.43
2022-10-15T07:42:43.628Z,24.40
2022-10-15T07:45:11.172Z,24.41
2022-10-15T07:47:40.285Z,24.41
2022-10-15T07:50:07.985Z,24.43
2022-10-15T07:52:35.088Z,24.39
2022-10-15T07:55:02.248Z,24.41
2022-10-15T07:57:29.344Z,24.38
2022-10-15T07:59:57.804Z,24.42
2022-10-15T08:02:25.263Z,24.39
2022-10-15T08:04:52.575Z,24.40
2022-10-15T08:07:19.677Z,24.45
2022-10-15T08:12:18.736Z,24.52
2022-10-15T08:14:46.701Z,24.46
2022-10-15T08:17:15.199Z,24.37
2022-10-15T08:19:42.286Z,24.30
2022-10-15T08:22:09.543Z,24.18
2022-10-15T08:24:36.665Z,23.88
2022-10-15T08:27:03.854Z,23.82
2022-10-15T08:29:30.954Z,23.80
2022-10-15T08:31:58.070Z,23.62
2022-10-15T08:34:26.637Z,23.47
2022-10-15T08:36:53.762Z,23.51
2022-10-15T08:39:20.866Z,23.09
2022-10-15T08:41:51.687Z,23.08
2022-10-15T08:44:24.930Z,23.28
2022-10-15T08:46:56.172Z,22.97
2022-10-15T08:49:35.530Z,23.04
2022-10-15T08:52:08.459Z,23.09
2022-10-15T08:54:36.164Z,23.20
2022-10-15T08:57:16.957Z,23.02
2022-10-15T08:59:53.476Z,22.70
2022-10-15T09:02:25.617Z,22.61
2022-10-15T09:05:01.744Z,22.58
2022-10-15T09:07:36.592Z,22.41
2022-10-15T09:10:14.958Z,22.30
2022-10-15T09:12:48.608Z,22.30
2022-10-15T09:15:22.629Z,22.20
2022-10-15T09:17:54.485Z,22.33
2022-10-15T09:20:31.026Z,22.58
2022-10-15T09:22:58.410Z,22.77
2022-10-15T09:25:32.411Z,22.91
2022-10-15T09:28:06.316Z,22.97
2022-10-15T09:30:40.495Z,23.07
2022-10-15T09:33:11.779Z,23.12
2022-10-15T09:35:45.227Z,23.22
2022-10-15T09:38:28.589Z,23.21
2022-10-15T09:41:12.997Z,23.31
2022-10-15T09:43:39.948Z,23.35
2022-10-15T09:46:08.911Z,23.38
2022-10-15T09:48:41.216Z,23.44
2022-10-15T09:51:21.272Z,23.48
2022-10-15T09:53:59.505Z,23.52
2022-10-15T09:56:31.977Z,23.57
2022-10-15T09:59:00.232Z,23.56
2022-10-15T10:01:29.451Z,23.54
2022-10-15T10:04:12.060Z,23.56
2022-10-15T10:06:49.955Z,23.56
2022-10-15T10:09:20.092Z,23.58
2022-10-15T10:11:50.235Z,23.64
2022-10-15T10:14:29.820Z,23.61
2022-10-15T10:17:13.646Z,23.62
2022-10-15T10:19:40.815Z,23.60
2022-10-15T10:22:15.581Z,23.60
2022-10-15T10:24:42.889Z,23.61
2022-10-15T10:27:22.134Z,23.64
2022-10-15T10:29:54.583Z,23.65
2022-10-15T10:32:23.962Z,23.65
2022-10-15T10:34:52.865Z,23.65
2022-10-15T10:37:22.747Z,23.63
2022-10-15T10:39:54.626Z,23.62
2022-10-15T10:42:32.743Z,23.59
2022-10-15T10:45:18.791Z,23.66
2022-10-15T10:47:46.502Z,23.66
2022-10-15T10:50:29.937Z,23.67
2022-10-15T10:53:10.128Z,23.71
2022-10-15T10:55:39.445Z,23.75
2022-10-15T10:58:15.120Z,23.73
2022-10-15T11:00:44.019Z,23.77
2022-10-15T11:03:21.716Z,23.80
2022-10-15T11:05:54.114Z,23.81
2022-10-15T11:08:35.500Z,23.82
2022-10-15T11:11:12.470Z,23.85
2022-10-15T11:13:50.122Z,23.82
2022-10-15T11:16:23.499Z,23.83
2022-10-15T11:19:09.343Z,23.82
2022-10-15T11:21:59.724Z,23.83
2022-10-15T11:24:42.589Z,23.83
2022-10-15T11:27:38.344Z,23.82
2022-10-15T11:30:15.789Z,23.78
2022-10-15T11:33:06.676Z,23.76
2022-10-15T11:35:58.745Z,23.80
2022-10-15T11:38:34.497Z,23.78
2022-10-15T11:41:22.341Z,23.79
2022-10-15T11:44:00.557Z,23.83
2022-10-15T11:46:34.245Z,23.88
2022-10-15T11:49:18.235Z,23.91
2022-10-15T11:52:13.292Z,23.92
2022-10-15T11:54:46.763Z,23.94
2022-10-15T11:57:18.865Z,23.98
2022-10-15T11:59:51.389Z,23.98
2022-10-15T12:02:23.183Z,23.98
2022-10-15T12:04:53.620Z,24.02
2022-10-15T12:07:23.979Z,24.04
2022-10-15T12:09:55.355Z,24.02
2022-10-15T12:12:34.497Z,24.04
2022-10-15T12:15:18.403Z,24.03
2022-10-15T12:17:51.667Z,24.02
2022-10-15T12:20:21.602Z,24.03
2022-10-15T12:22:57.598Z,24.01
2022-10-15T12:25:42.781Z,24.03
2022-10-15T12:28:17.075Z,24.06
2022-10-15T12:30:57.843Z,24.04
2022-10-15T12:33:32.430Z,24.11
2022-10-15T12:36:01.540Z,24.14
2022-10-15T12:38:31.843Z,24.14
2022-10-15T12:41:02.435Z,24.20
2022-10-15T12:43:32.941Z,24.25
2022-10-15T12:46:02.659Z,24.24
2022-10-15T12:48:35.666Z,24.18
2022-10-15T12:51:39.191Z,24.25
2022-10-15T12:54:39.380Z,24.18
2022-10-15T12:57:39.789Z,24.21
2022-10-15T13:00:31.322Z,24.26
2022-10-15T13:03:09.681Z,24.25
2022-10-15T13:05:37.229Z,24.29
2022-10-15T13:08:12.555Z,24.26
2022-10-15T13:10:41.256Z,24.25
2022-10-15T13:13:15.469Z,24.25
2022-10-15T13:15:52.032Z,24.20
2022-10-15T13:18:23.385Z,24.24
2022-10-15T13:20:52.439Z,24.28
2022-10-15T13:23:30.005Z,24.29
2022-10-15T13:26:12.306Z,24.31
2022-10-15T13:28:40.872Z,24.28
2022-10-15T13:31:16.013Z,24.29
2022-10-15T13:33:45.980Z,24.28
2022-10-15T13:36:21.704Z,24.29
2022-10-15T13:38:56.881Z,24.24
2022-10-15T13:41:26.941Z,24.20
2022-10-15T13:43:54.565Z,24.20
2022-10-15T13:46:25.306Z,24.19
2022-10-15T13:48:58.032Z,24.16
2022-10-15T13:51:31.785Z,24.09
2022-10-15T13:54:00.665Z,24.13
2022-10-15T13:56:30.858Z,24.20
2022-10-15T13:59:00.617Z,24.13
2022-10-15T14:01:30.453Z,24.16
2022-10-15T14:03:59.137Z,24.21
2022-10-15T14:06:27.980Z,24.26
2022-10-15T14:08:57.348Z,24.27
2022-10-15T14:11:24.981Z,24.34
2022-10-15T14:13:53.856Z,24.42
2022-10-15T14:16:24.483Z,24.42
2022-10-15T14:18:54.904Z,24.43
2022-10-15T14:21:24.404Z,24.46
2022-10-15T14:23:51.551Z,24.58
2022-10-15T14:26:24.269Z,24.59
2022-10-15T14:28:52.223Z,24.62
2022-10-15T14:31:31.880Z,24.66
2022-10-15T14:34:00.468Z,24.65
2022-10-15T14:36:29.448Z,24.56
2022-10-15T14:39:22.019Z,24.57
2022-10-15T14:41:56.295Z,24.56
2022-10-15T14:44:23.448Z,24.61
2022-10-15T14:46:58.677Z,24.64
2022-10-15T14:49:30.329Z,24.72
2022-10-15T14:52:04.524Z,24.75
2022-10-15T14:54:41.189Z,24.79
2022-10-15T14:57:18.628Z,24.78
2022-10-15T14:59:46.165Z,24.82
2022-10-15T15:02:16.300Z,24.79
2022-10-15T15:04:51.278Z,24.76
2022-10-15T15:07:20.180Z,24.70
2022-10-15T15:09:48.477Z,24.70
2022-10-15T15:12:21.681Z,24.77
2022-10-15T15:14:51.645Z,24.77
2022-10-15T15:17:20.788Z,25.04
2022-10-15T15:19:49.900Z,25.18
2022-10-15T15:22:23.805Z,25.11
2022-10-15T15:24:51.127Z,25.17
2022-10-15T15:27:26.314Z,25.24
2022-10-15T15:29:54.421Z,25.43
2022-10-15T15:32:23.770Z,25.34
2022-10-15T15:34:53.797Z,25.29
2022-10-15T15:37:23.278Z,25.23
2022-10-15T15:39:50.702Z,25.20
2022-10-15T15:42:19.391Z,25.21
2022-10-15T15:44:46.993Z,25.21
2022-10-15T15:47:14.745Z,25.12
2022-10-15T15:49:42.208Z,25.19
2022-10-15T15:52:12.712Z,25.11
2022-10-15T15:54:40.591Z,25.01
2022-10-15T15:57:07.836Z,24.85
2022-10-15T15:59:35.064Z,24.80
2022-10-15T16:02:02.260Z,24.72
2022-10-15T16:04:29.468Z,24.70
2022-10-15T16:06:56.770Z,24.69
2022-10-15T16:09:27.001Z,24.67
2022-10-15T16:11:54.176Z,24.69
2022-10-15T16:14:21.280Z,24.61
2022-10-15T16:16:48.400Z,24.60
2022-10-15T16:19:15.514Z,24.60
2022-10-15T16:21:42.664Z,24.59
2022-10-15T16:24:09.768Z,24.65
2022-10-15T16:26:38.270Z,24.68
2022-10-15T16:29:05.387Z,24.72
2022-10-15T16:31:32.489Z,24.69
2022-10-15T16:33:59.591Z,24.65
2022-10-15T16:36:26.711Z,24.61
2022-10-15T16:38:53.820Z,24.67
2022-10-15T16:41:21.098Z,24.68
2022-10-15T16:43:50.149Z,24.62
2022-10-15T16:46:18.839Z,24.61
2022-10-15T16:48:51.336Z,24.62
2022-10-15T16:51:18.467Z,24.61
2022-10-15T16:53:48.599Z,24.61
2022-10-15T16:56:17.836Z,24.65
2022-10-15T16:58:45.152Z,24.64
2022-10-15T17:01:15.586Z,24.65
2022-10-15T17:03:43.261Z,24.69
2022-10-15T17:06:13.409Z,24.76
2022-10-15T17:08:43.529Z,24.76
2022-10-15T17:11:11.970Z,24.83
2022-10-15T17:13:39.318Z,24.84
2022-10-15T17:16:15.485Z,24.84
2022-10-15T17:18:43.139Z,24.81
2022-10-15T17:21:12.559Z,24.79
2022-10-15T17:23:40.060Z,24.80
2022-10-15T17:26:09.469Z,24.77
2022-10-15T17:28:37.087Z,24.77
2022-10-15T17:31:06.511Z,24.75
2022-10-15T17:33:36.285Z,24.77
2022-10-15T17:36:04.338Z,24.77
2022-10-15T17:38:31.754Z,24.70
2022-10-15T17:40:59.586Z,24.74
2022-10-15T17:43:27.262Z,24.74
2022-10-15T17:46:00.681Z,24.75
2022-10-15T17:48:28.095Z,24.76
2022-10-15T17:50:58.577Z,24.75
2022-10-15T17:53:25.792Z,24.75
2022-10-15T17:55:52.980Z,24.79
2022-10-15T17:58:20.215Z,24.81
2022-10-15T18:00:52.173Z,24.81
2022-10-15T18:03:19.276Z,24.81
2022-10-15T18:05:46.405Z,24.81
2022-10-15T18:08:15.081Z,24.84
2022-10-15T18:10:42.581Z,24.86
2022-10-15T18:13:10.212Z,24.83
2022-10-15T18:15:38.805Z,24.81
2022-10-15T18:18:06.021Z,24.79
2022-10-15T18:20:33.120Z,24.77
2022-10-15T18:23:00.228Z,24.79
2022-10-15T18:25:28.684Z,24.79
2022-10-15T18:27:55.767Z,24.79
2022-10-15T18:30:22.883Z,24.80
2022-10-15T18:32:51.261Z,25.04
2022-10-15T18:35:20.355Z,25.33
2022-10-15T18:37:47.457Z,25.35
2022-10-15T18:40:14.577Z,25.28
2022-10-15T18:42:47.547Z,25.23
2022-10-15T18:45:15.140Z,25.20
2022-10-15T18:47:42.228Z,25.17
2022-10-15T18:50:09.766Z,25.20
2022-10-15T18:52:39.860Z,25.17
2022-10-15T18:55:08.585Z,25.15
2022-10-15T18:57:35.698Z,25.12
2022-10-15T19:00:05.730Z,25.12
2022-10-15T19:02:32.840Z,25.08
2022-10-15T19:04:59.940Z,25.03
2022-10-15T19:07:30.002Z,25.06
2022-10-15T19:09:58.693Z,25.05
2022-10-15T19:12:26.130Z,25.03
2022-10-15T19:14:53.370Z,25.07
2022-10-15T19:17:21.858Z,25.06
2022-10-15T19:19:48.970Z,25.02
2022-10-15T19:22:16.326Z,25.05
2022-10-15T19:24:43.459Z,25.06
2022-10-15T19:27:10.718Z,25.12
2022-10-15T19:29:38.013Z,25.14
2022-10-15T19:32:05.538Z,25.12
2022-10-15T19:34:34.069Z,25.12
2022-10-15T19:37:01.628Z,25.19
2022-10-15T19:39:28.984Z,25.20
2022-10-15T19:41:56.082Z,25.25
2022-10-15T19:44:23.218Z,25.31
2022-10-15T19:46:50.368Z,25.31
2022-10-15T19:49:17.763Z,25.34
2022-10-15T19:51:49.225Z,25.35
2022-10-15T19:54:17.318Z,25.34
2022-10-15T19:56:44.514Z,25.32
2022-10-15T19:59:11.859Z,25.37
2022-10-15T20:01:39.159Z,25.38
2022-10-15T20:04:07.081Z,25.33
2022-10-15T20:06:35.643Z,25.38
2022-10-15T20:09:04.545Z,25.35
2022-10-15T20:11:31.924Z,25.35
2022-10-15T20:13:59.561Z,25.39
2022-10-15T20:16:28.797Z,25.43
2022-10-15T20:19:01.057Z,25.42
2022-10-15T20:21:28.217Z,25.40
2022-10-15T20:23:55.738Z,25.44
2022-10-15T20:26:24.257Z,25.43
2022-10-15T20:28:51.401Z,25.49
2022-10-15T20:31:19.750Z,25.51
2022-10-15T20:33:47.214Z,25.52
2022-10-15T20:36:17.970Z,25.49
2022-10-15T20:38:48.206Z,25.49
2022-10-15T20:41:17.207Z,25.50
2022-10-15T20:43:46.413Z,25.48
2022-10-15T20:46:18.443Z,25.49
2022-10-15T20:48:46.081Z,25.46
2022-10-15T20:51:17.360Z,25.46
2022-10-15T20:53:45.533Z,25.48
2022-10-15T20:56:13.137Z,25.43
2022-10-15T20:58:40.317Z,25.39
2022-10-15T21:01:08.966Z,25.39
2022-10-15T21:03:36.193Z,25.37
2022-10-15T21:06:03.348Z,25.34
2022-10-15T21:08:30.576Z,25.36
2022-10-15T21:11:01.402Z,25.35
2022-10-15T21:13:28.536Z,25.38
2022-10-15T21:15:58.123Z,25.39
2022-10-15T21:18:27.028Z,25.41
2022-10-15T21:20:54.213Z,25.41
2022-10-15T21:23:21.363Z,25.42
2022-10-15T21:25:48.444Z,25.42
2022-10-15T21:28:15.611Z,25.41
2022-10-15T21:30:42.716Z,25.39
2022-10-15T21:33:09.832Z,25.37
2022-10-15T21:35:38.285Z,25.34
2022-10-15T21:38:05.464Z,25.32
2022-10-15T21:40:32.558Z,25.32
2022-10-15T21:42:59.640Z,25.31
2022-10-15T21:45:26.789Z,25.29
2022-10-15T21:47:53.883Z,25.27
2022-10-15T21:50:20.961Z,25.25
2022-10-15T21:52:49.441Z,25.25
2022-10-15T21:55:16.723Z,25.22
2022-10-15T21:57:43.802Z,25.28
2022-10-15T22:00:14.632Z,25.29
2022-10-15T22:02:41.737Z,25.32
2022-10-15T22:05:09.115Z,25.29
2022-10-15T22:07:38.439Z,25.29
2022-10-15T22:10:09.018Z,25.31
2022-10-15T22:12:36.226Z,25.29
2022-10-15T22:15:03.645Z,25.31
2022-10-15T22:17:30.768Z,25.25
2022-10-15T22:19:58.015Z,25.26
2022-10-15T22:22:25.295Z,25.25
2022-10-15T22:24:52.614Z,25.26
2022-10-15T22:27:21.095Z,25.26
2022-10-15T22:29:48.178Z,25.26
2022-10-15T22:32:15.270Z,25.24
2022-10-15T22:34:42.363Z,25.25
2022-10-15T22:37:09.474Z,25.23
2022-10-15T22:39:36.556Z,25.20
2022-10-15T22:42:03.883Z,25.22
2022-10-15T22:44:32.322Z,25.19
2022-10-15T22:46:59.420Z,25.12
2022-10-15T22:49:26.843Z,25.17
2022-10-15T22:51:53.938Z,25.16
2022-10-15T22:54:22.002Z,25.17
2022-10-15T22:56:50.199Z,25.17
2022-10-15T22:59:17.883Z,25.17
2022-10-15T23:01:46.439Z,25.20
2022-10-15T23:04:15.388Z,25.19
2022-10-15T23:06:42.772Z,25.19
2022-10-15T23:09:11.230Z,25.21
2022-10-15T23:11:40.101Z,25.19
2022-10-15T23:14:10.193Z,25.18
2022-10-15T23:16:39.721Z,25.19
2022-10-15T23:19:12.587Z,25.15
2022-10-15T23:21:42.551Z,25.18
2022-10-15T23:24:09.670Z,25.17
2022-10-15T23:26:37.225Z,25.17
2022-10-15T23:29:05.814Z,25.16
2022-10-15T23:31:35.007Z,25.14
2022-10-15T23:34:04.307Z,25.12
2022-10-15T23:36:34.376Z,25.11
2022-10-15T23:39:04.392Z,25.08
2022-10-15T23:41:31.821Z,25.09
2022-10-15T23:43:59.690Z,25.12
2022-10-15T23:46:27.168Z,25.19
2022-10-15T23:48:54.351Z,25.17
2022-10-15T23:51:23.720Z,25.14
2022-10-15T23:53:53.062Z,25.14
2022-10-15T23:56:21.093Z,25.12
2022-10-15T23:58:49.531Z,25.16
